Andacollo, Argentina
Current Conditions -  °F | °C
As of 2:00 PM on Thursday 23 Oct 2014 (Local Time) from SCIC Reporting Station
Clear Clear  
Wind Chill: 26°   Ceiling: Unl
Heat Index: 26°   Visibility: 6mi
Dew Point: 14°   Wind: 8mph
Humidity: 47%   Direction: 190°S
Pressure: 29.97"   Gusts: NA
Location:  37.05°S, 70.07°W
Report Text: SCIC 231700Z 19007KT CAVOK 26/14 Q1015
Loading
Personal Weather Stations






























Interactive Weather Map
Tropical Storm Tracking
New forecast layout! Learn more

10-Day Weather Forecast

Advertisements
Track Severe Weather on mobile